createdAt,value
2023-01-22T00:01:17.211Z,81.30
2023-01-22T00:03:47.391Z,81.10
2023-01-22T00:06:17.947Z,81.10
2023-01-22T00:08:48.426Z,81.10
2023-01-22T00:11:19.890Z,81.30
2023-01-22T00:13:49.907Z,81.40
2023-01-22T00:16:20.589Z,81.50
2023-01-22T00:18:50.499Z,81.50
2023-01-22T00:21:20.393Z,81.30
2023-01-22T00:23:50.280Z,81.20
2023-01-22T00:26:20.817Z,81.60
2023-01-22T00:28:50.730Z,81.80
2023-01-22T00:31:21.776Z,81.80
2023-01-22T00:33:51.657Z,82.00
2023-01-22T00:36:23.755Z,82.00
2023-01-22T00:38:53.891Z,82.10
2023-01-22T00:41:24.180Z,82.30
2023-01-22T00:43:53.959Z,82.40
2023-01-22T00:46:23.952Z,82.60
2023-01-22T00:48:53.795Z,82.60
2023-01-22T00:51:23.541Z,82.60
2023-01-22T00:53:53.479Z,82.50
2023-01-22T00:56:23.268Z,82.40
2023-01-22T00:58:52.966Z,82.70
2023-01-22T01:01:22.908Z,82.70
2023-01-22T01:03:52.657Z,82.70
2023-01-22T01:06:24.306Z,83.10
2023-01-22T01:08:53.978Z,82.80
2023-01-22T01:11:27.896Z,82.90
2023-01-22T01:13:57.739Z,82.70
2023-01-22T01:16:31.457Z,82.80
2023-01-22T01:19:06.994Z,82.70
2023-01-22T01:21:37.185Z,82.70
2023-01-22T01:24:07.302Z,82.90
2023-01-22T01:26:37.487Z,82.90
2023-01-22T01:29:09.754Z,82.80
2023-01-22T01:31:41.264Z,82.80
2023-01-22T01:34:11.150Z,82.70
2023-01-22T01:36:48.613Z,82.70
2023-01-22T01:39:19.130Z,82.50
2023-01-22T01:41:48.921Z,82.70
2023-01-22T01:44:21.291Z,82.50
2023-01-22T01:46:56.309Z,82.20
2023-01-22T01:49:32.253Z,82.10
2023-01-22T01:52:08.629Z,81.80
2023-01-22T01:54:39.144Z,81.80
2023-01-22T01:57:20.319Z,81.60
2023-01-22T01:59:51.937Z,81.30
2023-01-22T02:02:22.750Z,81.10
2023-01-22T02:04:55.159Z,80.90
2023-01-22T02:07:25.283Z,80.70
2023-01-22T02:09:55.064Z,80.50
2023-01-22T02:12:25.069Z,79.90
2023-01-22T02:14:55.447Z,79.20
2023-01-22T02:17:25.505Z,78.90
2023-01-22T02:19:55.393Z,78.70
2023-01-22T02:22:32.242Z,78.40
2023-01-22T02:25:02.381Z,78.10
2023-01-22T02:27:32.448Z,78.10
2023-01-22T02:30:02.457Z,77.90
2023-01-22T02:32:32.886Z,77.60
2023-01-22T02:35:02.672Z,77.60
2023-01-22T02:37:32.579Z,77.60
2023-01-22T02:40:02.421Z,77.50
2023-01-22T02:42:32.192Z,77.20
2023-01-22T02:45:01.922Z,77.10
2023-01-22T02:47:31.896Z,76.80
2023-01-22T02:50:01.599Z,76.50
2023-01-22T02:52:31.504Z,76.10
2023-01-22T02:55:01.608Z,75.80
2023-01-22T02:57:33.651Z,75.40
2023-01-22T03:00:03.652Z,75.10
2023-01-22T03:02:33.719Z,74.90
2023-01-22T03:05:06.715Z,74.70
2023-01-22T03:07:45.201Z,74.10
2023-01-22T03:10:18.480Z,73.90
2023-01-22T03:13:09.507Z,73.50
2023-01-22T03:16:01.116Z,73.10
2023-01-22T03:18:50.617Z,72.70
2023-01-22T03:21:21.986Z,72.30
2023-01-22T03:23:56.875Z,72.00
2023-01-22T03:26:27.061Z,71.60
2023-01-22T03:28:57.128Z,72.10
2023-01-22T03:31:27.193Z,70.40
2023-01-22T03:33:57.871Z,69.70
2023-01-22T03:36:28.057Z,69.90
2023-01-22T03:38:58.017Z,69.50
2023-01-22T03:41:27.842Z,69.20
2023-01-22T03:43:57.598Z,68.90
2023-01-22T03:46:27.531Z,68.40
2023-01-22T03:48:57.648Z,67.80
2023-01-22T03:51:27.672Z,67.20
2023-01-22T03:53:57.481Z,66.90
2023-01-22T03:56:27.531Z,66.50
2023-01-22T03:58:58.141Z,66.60
2023-01-22T04:01:30.617Z,65.80
2023-01-22T04:04:00.381Z,65.60
2023-01-22T04:06:32.384Z,64.70
2023-01-22T04:09:02.127Z,63.90
2023-01-22T04:11:32.045Z,63.50
2023-01-22T04:14:01.995Z,63.50
2023-01-22T04:16:31.937Z,63.40
2023-01-22T04:19:01.902Z,62.60
2023-01-22T04:21:31.647Z,62.20
2023-01-22T04:24:01.476Z,61.50
2023-01-22T04:26:31.510Z,60.20
2023-01-22T04:29:01.633Z,60.80
2023-01-22T04:31:31.798Z,60.70
2023-01-22T04:34:02.436Z,60.60
2023-01-22T04:36:32.209Z,60.40
2023-01-22T04:39:01.968Z,59.80
2023-01-22T04:41:31.814Z,59.90
2023-01-22T04:44:01.451Z,59.60
2023-01-22T04:46:31.620Z,59.70
2023-01-22T04:49:01.556Z,59.00
2023-01-22T04:51:31.449Z,58.80
2023-01-22T04:54:01.353Z,58.80
2023-01-22T04:56:31.187Z,58.50
2023-01-22T04:59:00.932Z,58.30
2023-01-22T05:01:31.040Z,57.80
2023-01-22T05:04:04.180Z,57.60
2023-01-22T05:06:34.245Z,57.20
2023-01-22T05:09:04.090Z,56.90
2023-01-22T05:11:34.071Z,56.40
2023-01-22T05:14:04.043Z,56.10
2023-01-22T05:16:33.866Z,56.00
2023-01-22T05:19:03.741Z,56.00
2023-01-22T05:21:33.628Z,56.10
2023-01-22T05:24:03.382Z,55.30
2023-01-22T05:26:33.243Z,55.60
2023-01-22T05:29:03.396Z,54.20
2023-01-22T05:31:33.799Z,52.60
2023-01-22T05:34:04.754Z,52.40
2023-01-22T05:36:34.776Z,53.40
2023-01-22T05:39:04.611Z,53.90
2023-01-22T05:41:34.580Z,53.60
2023-01-22T05:44:05.526Z,53.90
2023-01-22T05:46:35.666Z,53.80
2023-01-22T05:49:05.657Z,53.50
2023-01-22T05:51:36.735Z,52.80
2023-01-22T05:54:06.762Z,53.00
2023-01-22T05:56:36.719Z,52.80
2023-01-22T05:59:06.646Z,53.20
2023-01-22T06:01:36.389Z,53.20
2023-01-22T06:04:06.300Z,52.60
2023-01-22T06:06:36.352Z,52.70
2023-01-22T06:09:06.798Z,52.70
2023-01-22T06:11:36.587Z,52.10
2023-01-22T06:14:06.943Z,50.30
2023-01-22T06:16:37.150Z,50.00
2023-01-22T06:19:07.177Z,50.40
2023-01-22T06:21:36.956Z,50.40
2023-01-22T06:24:07.116Z,50.50
2023-01-22T06:26:37.036Z,49.40
2023-01-22T06:29:07.162Z,48.70
2023-01-22T06:31:37.156Z,49.00
2023-01-22T06:34:11.956Z,49.10
2023-01-22T06:36:43.579Z,48.90
2023-01-22T06:39:13.530Z,49.10
2023-01-22T06:41:43.646Z,49.40
2023-01-22T06:44:13.423Z,49.30
2023-01-22T06:46:43.307Z,49.20
2023-01-22T06:49:14.328Z,49.40
2023-01-22T06:51:44.699Z,49.30
2023-01-22T06:54:15.077Z,48.80
2023-01-22T06:56:44.978Z,48.60
2023-01-22T06:59:14.769Z,48.80
2023-01-22T07:01:44.725Z,48.30
2023-01-22T07:04:14.484Z,47.20
2023-01-22T07:06:44.365Z,47.10
2023-01-22T07:09:14.331Z,47.10
2023-01-22T07:11:46.796Z,47.00
2023-01-22T07:14:19.646Z,47.10
2023-01-22T07:16:53.352Z,47.00
2023-01-22T07:19:23.225Z,47.20
2023-01-22T07:21:53.197Z,46.90
2023-01-22T07:24:22.787Z,46.60
2023-01-22T07:26:52.723Z,46.50
2023-01-22T07:29:22.760Z,46.30
2023-01-22T07:31:52.578Z,46.40
2023-01-22T07:34:23.252Z,46.30
2023-01-22T07:36:53.108Z,45.90
2023-01-22T07:39:22.796Z,46.00
2023-01-22T07:41:52.603Z,46.00
2023-01-22T07:44:22.544Z,46.00
2023-01-22T07:46:52.421Z,45.60
2023-01-22T07:49:22.134Z,45.80
2023-01-22T07:51:52.112Z,45.70
2023-01-22T07:54:21.886Z,44.70
2023-01-22T07:56:51.885Z,44.70
2023-01-22T07:59:21.802Z,44.80
2023-01-22T08:01:51.652Z,44.30
2023-01-22T08:04:21.557Z,44.00
2023-01-22T08:06:51.412Z,43.70
2023-01-22T08:09:26.697Z,44.00
2023-01-22T08:11:56.634Z,43.60
2023-01-22T08:14:26.274Z,43.20
2023-01-22T08:16:56.113Z,43.50
2023-01-22T08:19:26.122Z,43.40
2023-01-22T08:21:55.746Z,43.20
2023-01-22T08:24:25.924Z,43.50
2023-01-22T08:26:58.023Z,43.50
2023-01-22T08:29:28.029Z,43.10
2023-01-22T08:31:57.870Z,42.90
2023-01-22T08:34:28.648Z,42.80
2023-01-22T08:36:58.590Z,42.70
2023-01-22T08:39:28.418Z,42.90
2023-01-22T08:42:01.208Z,42.60
2023-01-22T08:44:31.035Z,42.90
2023-01-22T08:47:00.825Z,42.60
2023-01-22T08:49:32.367Z,42.30
2023-01-22T08:52:02.106Z,42.50
2023-01-22T08:54:31.856Z,42.20
2023-01-22T08:57:01.850Z,42.30
2023-01-22T08:59:31.646Z,42.30
2023-01-22T09:02:04.787Z,42.10
2023-01-22T09:04:34.803Z,41.90
2023-01-22T09:07:04.641Z,42.00
2023-01-22T09:09:34.575Z,41.80
2023-01-22T09:12:04.451Z,42.00
2023-01-22T09:14:34.372Z,42.00
2023-01-22T09:17:04.485Z,41.80
2023-01-22T09:19:34.404Z,41.70
2023-01-22T09:22:08.348Z,41.50
2023-01-22T09:24:38.276Z,41.50
2023-01-22T09:27:08.046Z,41.30
2023-01-22T09:29:38.294Z,41.40
2023-01-22T09:32:08.408Z,41.00
2023-01-22T09:34:38.944Z,41.00
2023-01-22T09:37:09.685Z,41.20
2023-01-22T09:39:39.606Z,41.30
2023-01-22T09:42:14.668Z,41.10
2023-01-22T09:44:49.898Z,41.30
2023-01-22T09:47:28.234Z,41.40
2023-01-22T09:50:24.998Z,41.40
2023-01-22T09:52:58.993Z,41.00
2023-01-22T09:55:33.414Z,41.10
2023-01-22T09:58:07.394Z,41.30
2023-01-22T10:00:46.681Z,41.00
2023-01-22T10:03:30.724Z,41.30
2023-01-22T10:06:06.456Z,40.80
2023-01-22T10:08:42.235Z,41.40
2023-01-22T10:11:12.980Z,41.30
2023-01-22T10:13:42.985Z,41.40
2023-01-22T10:16:14.748Z,41.30
2023-01-22T10:19:07.826Z,41.40
2023-01-22T10:21:48.928Z,41.00
2023-01-22T10:24:18.873Z,41.10
2023-01-22T10:26:56.176Z,41.20
2023-01-22T10:29:34.940Z,41.40
2023-01-22T10:32:18.011Z,40.90
2023-01-22T10:35:01.904Z,41.10
2023-01-22T10:37:31.888Z,41.30
2023-01-22T10:40:02.823Z,41.20
2023-01-22T10:42:32.888Z,41.50
2023-01-22T10:45:18.081Z,41.50
2023-01-22T10:47:47.937Z,41.70
2023-01-22T10:50:21.503Z,42.00
2023-01-22T10:52:56.684Z,42.00
2023-01-22T10:55:37.449Z,42.10
2023-01-22T10:58:16.476Z,42.10
2023-01-22T11:00:52.278Z,42.10
2023-01-22T11:03:38.551Z,42.00
2023-01-22T11:06:16.261Z,42.30
2023-01-22T11:09:11.463Z,42.40
2023-01-22T11:11:46.428Z,42.90
2023-01-22T11:14:37.813Z,43.40
2023-01-22T11:17:24.757Z,43.70
2023-01-22T11:20:07.547Z,43.80
2023-01-22T11:22:41.804Z,43.80
2023-01-22T11:25:14.040Z,43.90
2023-01-22T11:28:22.959Z,44.10
2023-01-22T11:31:28.051Z,44.30
2023-01-22T11:34:37.225Z,44.60
2023-01-22T11:37:23.733Z,45.00
2023-01-22T11:40:21.879Z,45.30
2023-01-22T11:43:22.443Z,45.80
2023-01-22T11:46:28.529Z,46.20
2023-01-22T11:49:37.367Z,46.70
2023-01-22T11:52:46.278Z,46.50
2023-01-22T11:55:46.127Z,46.70
2023-01-22T11:58:55.039Z,47.20
2023-01-22T12:01:47.657Z,47.90
2023-01-22T12:04:53.263Z,48.50
2023-01-22T12:08:02.221Z,49.00
2023-01-22T12:10:57.037Z,49.70
2023-01-22T12:14:06.051Z,50.20
2023-01-22T12:17:02.371Z,50.30
2023-01-22T12:20:10.059Z,50.80
2023-01-22T12:22:59.121Z,51.40
2023-01-22T12:25:48.611Z,52.00
2023-01-22T12:28:38.419Z,52.10
2023-01-22T12:31:32.084Z,52.60
2023-01-22T12:34:06.280Z,53.30
2023-01-22T12:36:37.030Z,53.50
2023-01-22T12:39:34.236Z,53.60
2023-01-22T12:42:39.512Z,53.50
2023-01-22T12:45:40.769Z,53.90
2023-01-22T12:48:41.072Z,54.10
2023-01-22T12:51:37.751Z,54.40
2023-01-22T12:54:40.213Z,54.70
2023-01-22T12:57:40.605Z,54.90
2023-01-22T13:00:33.478Z,55.10
2023-01-22T13:03:05.875Z,55.40
2023-01-22T13:05:41.741Z,56.00
2023-01-22T13:08:39.058Z,56.30
2023-01-22T13:11:15.886Z,56.40
2023-01-22T13:13:56.591Z,56.50
2023-01-22T13:16:35.768Z,56.60
2023-01-22T13:19:22.761Z,56.80
2023-01-22T13:21:53.249Z,57.00
2023-01-22T13:24:23.866Z,57.00
2023-01-22T13:27:02.216Z,57.10
2023-01-22T13:29:37.988Z,57.20
2023-01-22T13:32:21.584Z,57.20
2023-01-22T13:34:51.569Z,57.40
2023-01-22T13:37:26.734Z,57.60
2023-01-22T13:39:57.481Z,57.70
2023-01-22T13:42:29.144Z,57.50
2023-01-22T13:44:59.667Z,57.80
2023-01-22T13:47:33.747Z,57.70
2023-01-22T13:50:04.653Z,58.00
2023-01-22T13:52:35.359Z,58.60
2023-01-22T13:55:09.183Z,59.00
2023-01-22T13:57:38.971Z,60.20
2023-01-22T14:00:26.744Z,60.60
2023-01-22T14:02:57.090Z,60.30
2023-01-22T14:05:29.581Z,60.50
2023-01-22T14:08:14.784Z,60.40
2023-01-22T14:10:45.259Z,60.60
2023-01-22T14:13:17.536Z,61.30
2023-01-22T14:16:01.601Z,61.10
2023-01-22T14:18:31.419Z,61.10
2023-01-22T14:21:01.444Z,61.60
2023-01-22T14:23:31.786Z,61.30
2023-01-22T14:26:05.927Z,61.20
2023-01-22T14:28:37.524Z,61.20
2023-01-22T14:31:07.471Z,61.30
2023-01-22T14:33:37.684Z,61.60
2023-01-22T14:36:07.919Z,61.70
2023-01-22T14:38:38.145Z,62.20
2023-01-22T14:41:09.715Z,62.30
2023-01-22T14:43:39.701Z,62.00
2023-01-22T14:46:10.657Z,61.60
2023-01-22T14:48:41.644Z,62.00
2023-01-22T14:51:13.400Z,61.90
2023-01-22T14:53:43.475Z,61.70
2023-01-22T14:56:13.255Z,61.90
2023-01-22T14:58:43.119Z,61.80
2023-01-22T15:01:21.914Z,61.90
2023-01-22T15:03:51.837Z,62.50
2023-01-22T15:06:22.000Z,63.20
2023-01-22T15:08:51.853Z,63.00
2023-01-22T15:11:21.711Z,63.30
2023-01-22T15:13:51.942Z,63.50
2023-01-22T15:16:22.639Z,63.50
2023-01-22T15:18:57.282Z,63.50
2023-01-22T15:21:27.362Z,64.00
2023-01-22T15:23:57.358Z,64.40
2023-01-22T15:26:30.186Z,65.70
2023-01-22T15:29:00.063Z,65.40
2023-01-22T15:31:30.086Z,65.90
2023-01-22T15:34:02.523Z,66.30
2023-01-22T15:36:33.491Z,66.80
2023-01-22T15:39:03.779Z,66.90
2023-01-22T15:41:36.865Z,67.00
2023-01-22T15:44:07.884Z,66.60
2023-01-22T15:46:40.527Z,66.70
2023-01-22T15:49:12.204Z,67.00
2023-01-22T15:51:43.401Z,67.40
2023-01-22T15:54:18.230Z,67.30
2023-01-22T15:56:48.022Z,67.40
2023-01-22T15:59:17.814Z,67.70
2023-01-22T16:01:47.714Z,67.90
2023-01-22T16:04:17.906Z,68.50
2023-01-22T16:06:47.686Z,68.10
2023-01-22T16:09:17.601Z,67.90
2023-01-22T16:11:47.606Z,67.80
2023-01-22T16:14:17.515Z,68.20
2023-01-22T16:16:47.625Z,68.10
2023-01-22T16:19:17.407Z,68.20
2023-01-22T16:21:49.104Z,68.50
2023-01-22T16:24:19.081Z,68.70
2023-01-22T16:26:48.906Z,68.50
2023-01-22T16:29:18.869Z,69.00
2023-01-22T16:31:48.749Z,68.80
2023-01-22T16:34:21.269Z,68.70
2023-01-22T16:36:51.179Z,68.60
2023-01-22T16:39:27.709Z,68.50
2023-01-22T16:41:58.790Z,68.60
2023-01-22T16:44:30.494Z,68.90
2023-01-22T16:47:02.367Z,68.80
2023-01-22T16:49:34.317Z,68.90
2023-01-22T16:52:21.341Z,68.80
2023-01-22T16:54:52.441Z,68.80
2023-01-22T16:57:22.310Z,69.10
2023-01-22T16:59:52.151Z,69.10
2023-01-22T17:02:24.988Z,69.20
2023-01-22T17:05:01.818Z,69.60
2023-01-22T17:07:34.807Z,70.00
2023-01-22T17:10:08.096Z,69.60
2023-01-22T17:12:39.108Z,69.90
2023-01-22T17:15:09.692Z,69.70
2023-01-22T17:17:42.696Z,69.80
2023-01-22T17:20:13.363Z,69.90
2023-01-22T17:22:43.187Z,70.10
2023-01-22T17:25:13.196Z,70.10
2023-01-22T17:27:42.973Z,70.30
2023-01-22T17:30:13.382Z,70.00
2023-01-22T17:32:43.254Z,70.30
2023-01-22T17:35:13.361Z,70.50
2023-01-22T17:37:43.816Z,70.50
2023-01-22T17:40:14.466Z,70.50
2023-01-22T17:42:44.948Z,70.90
2023-01-22T17:45:14.910Z,71.40
2023-01-22T17:47:47.860Z,71.00
2023-01-22T17:50:18.125Z,71.20
2023-01-22T17:52:47.941Z,71.50
2023-01-22T17:55:18.150Z,71.30
2023-01-22T17:57:48.354Z,71.30
2023-01-22T18:00:19.353Z,71.80
2023-01-22T18:02:49.252Z,72.70
2023-01-22T18:05:19.378Z,72.10
2023-01-22T18:07:49.391Z,71.70
2023-01-22T18:10:19.762Z,71.90
2023-01-22T18:12:50.854Z,71.80
2023-01-22T18:15:21.046Z,72.10
2023-01-22T18:17:51.322Z,73.10
2023-01-22T18:20:21.295Z,73.00
2023-01-22T18:22:51.034Z,72.90
2023-01-22T18:25:21.065Z,73.10
2023-01-22T18:27:51.545Z,73.20
2023-01-22T18:30:22.340Z,73.20
2023-01-22T18:32:52.179Z,73.20
2023-01-22T18:35:22.135Z,73.90
2023-01-22T18:37:53.945Z,73.50
2023-01-22T18:40:23.876Z,73.90
2023-01-22T18:42:54.464Z,73.60
2023-01-22T18:45:24.282Z,73.40
2023-01-22T18:47:55.489Z,73.70
2023-01-22T18:50:25.542Z,73.40
2023-01-22T18:52:55.355Z,73.20
2023-01-22T18:55:25.510Z,73.20
2023-01-22T18:57:58.714Z,73.70
2023-01-22T19:00:28.462Z,73.70
2023-01-22T19:02:59.894Z,74.10
2023-01-22T19:05:30.650Z,74.20
2023-01-22T19:08:00.407Z,74.40
2023-01-22T19:10:30.067Z,74.50
2023-01-22T19:12:59.962Z,74.40
2023-01-22T19:15:29.942Z,74.40
2023-01-22T19:17:59.705Z,74.30
2023-01-22T19:20:29.933Z,74.40
2023-01-22T19:23:02.005Z,74.30
2023-01-22T19:25:32.464Z,74.30
2023-01-22T19:28:02.377Z,74.60
2023-01-22T19:30:32.326Z,74.40
2023-01-22T19:33:02.804Z,74.30
2023-01-22T19:35:32.559Z,74.30
2023-01-22T19:38:02.501Z,73.90
2023-01-22T19:40:32.755Z,73.80
2023-01-22T19:43:03.202Z,74.30
2023-01-22T19:45:32.937Z,74.50
2023-01-22T19:48:02.654Z,74.70
2023-01-22T19:50:32.476Z,74.80
2023-01-22T19:53:02.563Z,74.80
2023-01-22T19:55:32.573Z,75.60
2023-01-22T19:58:02.271Z,75.10
2023-01-22T20:00:32.040Z,75.00
2023-01-22T20:03:03.153Z,74.80
2023-01-22T20:05:32.912Z,74.80
2023-01-22T20:08:02.655Z,74.60
2023-01-22T20:10:34.645Z,74.50
2023-01-22T20:13:04.387Z,74.60
2023-01-22T20:15:42.547Z,75.00
2023-01-22T20:18:12.666Z,75.30
2023-01-22T20:20:42.577Z,76.30
2023-01-22T20:23:12.426Z,75.90
2023-01-22T20:25:42.142Z,75.50
2023-01-22T20:28:14.487Z,75.50
2023-01-22T20:30:44.643Z,75.80
2023-01-22T20:33:14.491Z,75.80
2023-01-22T20:35:48.106Z,75.60
2023-01-22T20:38:17.914Z,75.50
2023-01-22T20:40:49.167Z,75.60
2023-01-22T20:43:21.620Z,75.60
2023-01-22T20:46:22.058Z,75.70
2023-01-22T20:48:52.844Z,75.70
2023-01-22T20:51:26.254Z,75.60
2023-01-22T20:53:57.752Z,75.90
2023-01-22T20:56:33.081Z,76.20
2023-01-22T20:59:18.975Z,76.10
2023-01-22T21:01:49.471Z,76.20
2023-01-22T21:04:20.173Z,76.20
2023-01-22T21:06:50.427Z,76.20
2023-01-22T21:09:20.200Z,76.40
2023-01-22T21:11:50.005Z,76.40
2023-01-22T21:14:22.119Z,76.20
2023-01-22T21:16:51.965Z,76.30
2023-01-22T21:19:31.145Z,76.30
2023-01-22T21:22:02.715Z,76.30
2023-01-22T21:24:33.155Z,76.50
2023-01-22T21:27:03.079Z,76.50
2023-01-22T21:29:32.860Z,76.30
2023-01-22T21:32:02.736Z,76.20
2023-01-22T21:34:34.080Z,76.30
2023-01-22T21:37:04.542Z,76.30
2023-01-22T21:39:34.476Z,76.70
2023-01-22T21:42:23.992Z,77.30
2023-01-22T21:45:15.247Z,76.80
2023-01-22T21:47:45.238Z,76.70
2023-01-22T21:50:15.195Z,76.70
2023-01-22T21:52:46.046Z,76.20
2023-01-22T21:55:17.320Z,76.20
2023-01-22T21:57:47.647Z,76.30
2023-01-22T22:00:18.886Z,76.50
2023-01-22T22:02:49.002Z,76.50
2023-01-22T22:05:19.026Z,76.70
2023-01-22T22:07:48.669Z,77.10
2023-01-22T22:10:19.661Z,77.50
2023-01-22T22:12:49.590Z,77.60
2023-01-22T22:15:19.490Z,77.70
2023-01-22T22:17:49.438Z,77.90
2023-01-22T22:20:19.965Z,77.90
2023-01-22T22:22:49.872Z,78.20
2023-01-22T22:25:19.832Z,78.20
2023-01-22T22:27:49.787Z,78.20
2023-01-22T22:30:20.044Z,78.10
2023-01-22T22:32:50.070Z,78.10
2023-01-22T22:35:20.071Z,78.00
2023-01-22T22:37:49.893Z,77.80
2023-01-22T22:40:21.148Z,77.70
2023-01-22T22:42:51.324Z,77.60
2023-01-22T22:45:22.049Z,77.40
2023-01-22T22:47:51.787Z,77.60
2023-01-22T22:50:21.963Z,77.70
2023-01-22T22:52:52.046Z,77.70
2023-01-22T22:55:21.963Z,77.70
2023-01-22T22:57:52.090Z,77.80
2023-01-22T23:00:22.261Z,77.70
2023-01-22T23:02:52.406Z,77.80
2023-01-22T23:05:22.136Z,77.60
2023-01-22T23:07:51.841Z,78.10
2023-01-22T23:10:30.926Z,78.10
2023-01-22T23:13:04.600Z,78.40
2023-01-22T23:15:35.668Z,77.90
2023-01-22T23:18:05.610Z,78.00
2023-01-22T23:20:36.643Z,78.10
2023-01-22T23:23:06.524Z,78.40
2023-01-22T23:25:36.338Z,78.80
2023-01-22T23:28:06.310Z,79.00
2023-01-22T23:30:37.531Z,78.70
2023-01-22T23:33:07.551Z,79.30
2023-01-22T23:35:37.496Z,79.10
2023-01-22T23:38:07.254Z,80.00
2023-01-22T23:40:37.260Z,79.70
2023-01-22T23:43:07.776Z,79.80
2023-01-22T23:45:42.048Z,79.70
2023-01-22T23:48:11.823Z,79.60
2023-01-22T23:50:41.688Z,79.60
2023-01-22T23:53:12.218Z,79.60
2023-01-22T23:55:41.887Z,79.40
2023-01-22T23:58:11.901Z,80.00
